createdAt,value
2017-03-21T00:00:27.940Z,0
2017-03-21T00:01:29.363Z,0
2017-03-21T00:02:30.810Z,0
2017-03-21T00:03:32.242Z,0
2017-03-21T00:04:33.688Z,0
2017-03-21T00:05:35.092Z,0
2017-03-21T00:06:36.529Z,0
2017-03-21T00:07:38.168Z,0
2017-03-21T00:08:39.596Z,0
2017-03-21T00:09:41.027Z,0
2017-03-21T00:10:42.450Z,0
2017-03-21T00:11:43.873Z,0
2017-03-21T00:12:45.301Z,0
2017-03-21T00:13:46.732Z,0
2017-03-21T00:14:48.161Z,0
2017-03-21T00:15:49.590Z,0
2017-03-21T00:16:51.019Z,0
2017-03-21T00:17:52.468Z,0
2017-03-21T00:18:53.906Z,0
2017-03-21T00:19:55.335Z,0
2017-03-21T00:20:56.761Z,0
2017-03-21T00:21:58.277Z,0
2017-03-21T00:23:00.377Z,0
2017-03-21T00:24:01.805Z,0
2017-03-21T00:25:03.233Z,0
2017-03-21T00:26:04.664Z,0
2017-03-21T00:27:06.088Z,0
2017-03-21T00:28:07.520Z,0
2017-03-21T00:29:08.945Z,0
2017-03-21T00:30:10.374Z,0
2017-03-21T00:31:11.803Z,0
2017-03-21T00:32:13.230Z,0
2017-03-21T00:33:14.654Z,0
2017-03-21T00:34:16.091Z,0
2017-03-21T00:35:17.527Z,0
2017-03-21T00:36:18.954Z,0
2017-03-21T00:37:20.385Z,0
2017-03-21T00:38:21.809Z,0
2017-03-21T00:39:23.235Z,0
2017-03-21T00:40:24.668Z,0
2017-03-21T00:41:26.096Z,0
2017-03-21T00:42:27.535Z,0
2017-03-21T00:43:28.958Z,0
2017-03-21T00:44:30.392Z,0
2017-03-21T00:45:31.820Z,0
2017-03-21T00:46:33.247Z,0
2017-03-21T00:47:34.669Z,0
2017-03-21T00:48:36.088Z,0
2017-03-21T00:49:37.515Z,0
2017-03-21T00:50:38.948Z,0
2017-03-21T00:51:40.376Z,0
2017-03-21T00:52:41.800Z,0
2017-03-21T00:53:43.234Z,0
2017-03-21T00:54:44.657Z,0
2017-03-21T00:55:46.078Z,0
2017-03-21T00:56:47.498Z,0
2017-03-21T00:57:48.931Z,0
2017-03-21T00:58:50.374Z,0
2017-03-21T00:59:51.803Z,0
2017-03-21T01:00:53.269Z,0
2017-03-21T01:01:54.708Z,0
2017-03-21T01:02:56.142Z,0
2017-03-21T01:03:57.565Z,0
2017-03-21T01:04:59.006Z,0
2017-03-21T01:06:00.434Z,0
2017-03-21T01:07:01.873Z,0
2017-03-21T01:08:03.296Z,0
2017-03-21T01:09:04.721Z,0
2017-03-21T01:10:06.147Z,0
2017-03-21T01:11:07.573Z,0
2017-03-21T01:12:09.000Z,0
2017-03-21T01:13:10.427Z,0
2017-03-21T01:14:11.861Z,0
2017-03-21T01:15:13.292Z,0
2017-03-21T01:16:14.719Z,0
2017-03-21T01:17:16.149Z,0
2017-03-21T01:18:17.581Z,0
2017-03-21T01:19:19.017Z,0
2017-03-21T01:20:20.461Z,0
2017-03-21T01:22:01.392Z,0
2017-03-21T01:23:02.815Z,0
2017-03-21T01:24:04.245Z,0
2017-03-21T01:25:05.675Z,0
2017-03-21T01:26:07.098Z,0
2017-03-21T01:27:08.528Z,0
2017-03-21T01:28:09.950Z,0
2017-03-21T01:29:11.370Z,0
2017-03-21T01:30:12.793Z,0
2017-03-21T01:31:14.220Z,0
2017-03-21T01:32:15.649Z,0
2017-03-21T01:33:17.072Z,0
2017-03-21T01:34:18.496Z,0
2017-03-21T01:35:19.924Z,0
2017-03-21T01:36:21.348Z,0
2017-03-21T01:37:22.777Z,0
2017-03-21T01:38:24.210Z,0
2017-03-21T01:39:25.642Z,0
2017-03-21T01:40:27.065Z,0
2017-03-21T01:41:28.492Z,0
2017-03-21T01:42:29.922Z,0
2017-03-21T01:43:31.341Z,0
2017-03-21T01:44:32.772Z,0
2017-03-21T01:45:34.202Z,0
2017-03-21T01:46:35.628Z,0
2017-03-21T01:47:37.062Z,0
2017-03-21T01:48:38.491Z,0
2017-03-21T01:49:39.954Z,0
2017-03-21T01:50:41.390Z,0
2017-03-21T01:51:42.807Z,0
2017-03-21T01:52:44.241Z,0
2017-03-21T01:53:45.669Z,0
2017-03-21T01:54:47.101Z,0
2017-03-21T01:55:48.545Z,0
2017-03-21T01:56:49.976Z,0
2017-03-21T01:57:51.399Z,0
2017-03-21T01:58:52.956Z,0
2017-03-21T01:59:54.467Z,0
2017-03-21T02:00:55.890Z,0
2017-03-21T02:01:57.317Z,0
2017-03-21T02:02:58.756Z,0
2017-03-21T02:04:00.180Z,0
2017-03-21T02:05:01.608Z,0
2017-03-21T02:06:03.030Z,0
2017-03-21T02:07:04.571Z,0
2017-03-21T02:08:06.010Z,0
2017-03-21T02:09:07.433Z,0
2017-03-21T02:10:08.856Z,0
2017-03-21T02:11:10.287Z,0
2017-03-21T02:12:11.711Z,0
2017-03-21T02:13:13.142Z,0
2017-03-21T02:14:14.649Z,0
2017-03-21T02:15:16.080Z,0
2017-03-21T02:16:17.508Z,0
2017-03-21T02:17:18.933Z,0
2017-03-21T02:18:20.369Z,0
2017-03-21T02:19:21.805Z,0
2017-03-21T02:20:23.226Z,0
2017-03-21T02:21:24.666Z,0
2017-03-21T02:22:26.091Z,0
2017-03-21T02:23:28.232Z,0
2017-03-21T02:24:29.660Z,0
2017-03-21T02:25:31.086Z,0
2017-03-21T02:26:32.508Z,0
2017-03-21T02:27:33.933Z,0
2017-03-21T02:28:35.359Z,0
2017-03-21T02:29:36.782Z,0
2017-03-21T02:30:38.220Z,0
2017-03-21T02:31:39.647Z,0
2017-03-21T02:32:41.069Z,0
2017-03-21T02:33:42.502Z,0
2017-03-21T02:34:43.925Z,0
2017-03-21T02:35:45.346Z,0
2017-03-21T02:36:46.780Z,0
2017-03-21T02:37:48.207Z,0
2017-03-21T02:38:49.642Z,0
2017-03-21T02:39:51.065Z,0
2017-03-21T02:40:52.505Z,0
2017-03-21T02:41:53.939Z,0
2017-03-21T02:42:55.370Z,0
2017-03-21T02:43:56.802Z,0
2017-03-21T02:44:58.229Z,0
2017-03-21T02:45:59.662Z,0
2017-03-21T02:47:01.086Z,0
2017-03-21T02:48:02.508Z,0
2017-03-21T02:49:03.941Z,0
2017-03-21T02:50:05.363Z,0
2017-03-21T02:51:06.785Z,0
2017-03-21T02:52:08.217Z,0
2017-03-21T02:53:09.645Z,0
2017-03-21T02:54:11.092Z,0
2017-03-21T02:55:12.507Z,0
2017-03-21T02:56:13.936Z,0
2017-03-21T02:57:15.368Z,0
2017-03-21T02:58:16.789Z,0
2017-03-21T02:59:18.225Z,0
2017-03-21T03:00:19.649Z,0
2017-03-21T03:01:21.077Z,0
2017-03-21T03:02:22.535Z,0
2017-03-21T03:03:23.971Z,0
2017-03-21T03:04:25.392Z,0
2017-03-21T03:05:26.824Z,0
2017-03-21T03:06:28.247Z,0
2017-03-21T03:07:29.675Z,0
2017-03-21T03:08:31.108Z,0
2017-03-21T03:09:32.529Z,0
2017-03-21T03:10:33.957Z,0
2017-03-21T03:11:35.386Z,0
2017-03-21T03:12:36.807Z,0
2017-03-21T03:13:38.234Z,0
2017-03-21T03:14:40.606Z,0
2017-03-21T03:15:42.029Z,0
2017-03-21T03:16:43.453Z,0
2017-03-21T03:17:44.886Z,0
2017-03-21T03:18:46.311Z,0
2017-03-21T03:19:47.734Z,0
2017-03-21T03:20:49.164Z,0
2017-03-21T03:21:50.590Z,0
2017-03-21T03:22:52.022Z,0
2017-03-21T03:23:54.525Z,0
2017-03-21T03:24:55.951Z,0
2017-03-21T03:25:57.381Z,0
2017-03-21T03:26:58.811Z,0
2017-03-21T03:28:00.240Z,0
2017-03-21T03:29:01.666Z,0
2017-03-21T03:30:03.098Z,0
2017-03-21T03:31:04.530Z,0
2017-03-21T03:32:05.964Z,0
2017-03-21T03:33:07.392Z,0
2017-03-21T03:34:08.812Z,0
2017-03-21T03:35:10.249Z,0
2017-03-21T03:36:11.678Z,0
2017-03-21T03:37:13.104Z,0
2017-03-21T03:38:14.531Z,0
2017-03-21T03:39:15.974Z,0
2017-03-21T03:40:17.391Z,0
2017-03-21T03:41:19.425Z,0
2017-03-21T03:42:20.851Z,0
2017-03-21T03:43:22.844Z,0
2017-03-21T03:44:24.242Z,0
2017-03-21T03:45:25.677Z,0
2017-03-21T03:46:27.100Z,0
2017-03-21T03:47:28.535Z,0
2017-03-21T03:48:29.967Z,0
2017-03-21T03:49:31.389Z,0
2017-03-21T03:50:32.820Z,0
2017-03-21T03:51:34.238Z,0
2017-03-21T03:52:35.657Z,0
2017-03-21T03:53:37.090Z,0
2017-03-21T03:54:38.512Z,0
2017-03-21T03:55:39.940Z,0
2017-03-21T03:56:41.368Z,0
2017-03-21T03:57:42.801Z,0
2017-03-21T03:58:44.230Z,0
2017-03-21T03:59:45.657Z,0
2017-03-21T04:00:47.082Z,0
2017-03-21T04:01:48.508Z,0
2017-03-21T04:02:49.939Z,0
2017-03-21T04:03:51.371Z,0
2017-03-21T04:04:52.801Z,0
2017-03-21T04:05:54.232Z,0
2017-03-21T04:06:57.020Z,0
2017-03-21T04:07:58.449Z,0
2017-03-21T04:08:59.882Z,0
2017-03-21T04:10:01.311Z,0
2017-03-21T04:11:02.727Z,0
2017-03-21T04:12:04.161Z,0
2017-03-21T04:13:05.586Z,0
2017-03-21T04:14:07.013Z,0
2017-03-21T04:15:08.486Z,0
2017-03-21T04:16:09.875Z,0
2017-03-21T04:17:11.303Z,0
2017-03-21T04:18:12.726Z,0
2017-03-21T04:19:14.151Z,0
2017-03-21T04:20:15.575Z,0
2017-03-21T04:21:17.004Z,0
2017-03-21T04:22:18.430Z,0
2017-03-21T04:23:19.858Z,0
2017-03-21T04:24:21.288Z,0
2017-03-21T04:25:22.718Z,0
2017-03-21T04:26:24.139Z,0
2017-03-21T04:27:25.569Z,0
2017-03-21T04:28:26.999Z,0
2017-03-21T04:29:28.422Z,0
2017-03-21T04:30:29.855Z,0
2017-03-21T04:31:31.287Z,0
2017-03-21T04:32:32.712Z,0
2017-03-21T04:33:34.138Z,0
2017-03-21T04:34:35.566Z,0
2017-03-21T04:35:36.996Z,0
2017-03-21T04:36:38.424Z,0
2017-03-21T04:37:39.849Z,0
2017-03-21T04:38:41.273Z,0
2017-03-21T04:39:42.708Z,0
2017-03-21T04:40:44.136Z,0
2017-03-21T04:41:45.565Z,0
2017-03-21T04:42:46.995Z,0
2017-03-21T04:43:48.422Z,0
2017-03-21T04:44:49.909Z,0
2017-03-21T04:45:51.341Z,0
2017-03-21T04:46:52.767Z,0
2017-03-21T04:47:54.194Z,0
2017-03-21T04:48:55.617Z,0
2017-03-21T04:49:57.041Z,0
2017-03-21T04:50:58.524Z,0
2017-03-21T04:52:00.008Z,0
2017-03-21T04:53:01.436Z,0
2017-03-21T04:54:02.868Z,0
2017-03-21T04:55:04.952Z,0
2017-03-21T04:56:06.373Z,0
2017-03-21T04:57:07.802Z,0
2017-03-21T04:58:09.232Z,0
2017-03-21T04:59:10.657Z,0
2017-03-21T05:00:12.094Z,0
2017-03-21T05:01:13.523Z,0
2017-03-21T05:02:14.946Z,0
2017-03-21T05:03:16.370Z,0
2017-03-21T05:04:17.800Z,0
2017-03-21T05:05:19.236Z,0
2017-03-21T05:06:20.663Z,0
2017-03-21T05:07:22.871Z,0
2017-03-21T05:08:24.305Z,0
2017-03-21T05:09:25.727Z,0
2017-03-21T05:10:27.152Z,0
2017-03-21T05:11:28.587Z,0
2017-03-21T05:12:30.017Z,0
2017-03-21T05:13:31.444Z,0
2017-03-21T05:14:32.879Z,0
2017-03-21T05:15:34.311Z,0
2017-03-21T05:16:35.735Z,0
2017-03-21T05:17:37.168Z,0
2017-03-21T05:18:38.601Z,0
2017-03-21T05:19:40.509Z,0
2017-03-21T05:20:41.936Z,0
2017-03-21T05:21:43.358Z,0
2017-03-21T05:22:44.798Z,0
2017-03-21T05:23:46.235Z,0
2017-03-21T05:24:47.675Z,0
2017-03-21T05:25:49.102Z,0
2017-03-21T05:26:50.525Z,0
2017-03-21T05:27:51.949Z,0
2017-03-21T05:28:53.381Z,0
2017-03-21T05:29:54.814Z,0
2017-03-21T05:30:56.239Z,0
2017-03-21T05:31:57.691Z,0
2017-03-21T05:32:59.114Z,0
2017-03-21T05:34:00.535Z,0
2017-03-21T05:35:01.970Z,0
2017-03-21T05:36:03.400Z,0
2017-03-21T05:37:04.822Z,0
2017-03-21T05:38:06.249Z,0
2017-03-21T05:39:07.679Z,0
2017-03-21T05:40:09.107Z,0
2017-03-21T05:41:10.541Z,0
2017-03-21T05:42:11.969Z,5
2017-03-21T05:43:13.398Z,5
2017-03-21T05:44:14.833Z,5
2017-03-21T05:45:16.266Z,5
2017-03-21T05:46:17.699Z,5
2017-03-21T05:47:19.126Z,5
2017-03-21T05:48:20.553Z,5
2017-03-21T05:49:21.987Z,5
2017-03-21T05:50:23.404Z,10
2017-03-21T05:51:24.833Z,10
2017-03-21T05:52:26.274Z,10
2017-03-21T05:53:27.704Z,10
2017-03-21T05:54:29.713Z,10
2017-03-21T05:55:31.140Z,10
2017-03-21T05:56:32.565Z,10
2017-03-21T05:57:33.999Z,10
2017-03-21T05:58:35.432Z,10
2017-03-21T05:59:36.857Z,10
2017-03-21T06:00:38.281Z,10
2017-03-21T06:01:39.705Z,15
2017-03-21T06:02:41.136Z,15
2017-03-21T06:03:42.573Z,15
2017-03-21T06:04:43.997Z,15
2017-03-21T06:05:45.423Z,20
2017-03-21T06:06:46.861Z,20
2017-03-21T06:07:48.290Z,20
2017-03-21T06:08:49.711Z,20
2017-03-21T06:09:51.133Z,20
2017-03-21T06:10:52.582Z,20
2017-03-21T06:11:54.011Z,20
2017-03-21T06:12:55.439Z,25
2017-03-21T06:13:56.863Z,25
2017-03-21T06:14:58.287Z,25
2017-03-21T06:15:59.728Z,25
2017-03-21T06:17:01.158Z,30
2017-03-21T06:18:02.592Z,25
2017-03-21T06:19:04.021Z,25
2017-03-21T06:20:05.457Z,25
2017-03-21T06:21:06.879Z,25
2017-03-21T06:22:08.304Z,25
2017-03-21T06:23:10.248Z,25
2017-03-21T06:24:12.492Z,25
2017-03-21T06:25:13.926Z,25
2017-03-21T06:26:15.364Z,25
2017-03-21T06:27:16.792Z,25
2017-03-21T06:28:18.230Z,25
2017-03-21T06:29:19.661Z,25
2017-03-21T06:30:21.102Z,25
2017-03-21T06:31:22.515Z,30
2017-03-21T06:32:23.939Z,30
2017-03-21T06:33:25.373Z,30
2017-03-21T06:34:26.804Z,30
2017-03-21T06:35:28.278Z,30
2017-03-21T06:36:29.701Z,30
2017-03-21T06:37:31.133Z,30
2017-03-21T06:38:32.554Z,30
2017-03-21T06:39:33.991Z,30
2017-03-21T06:40:35.446Z,35
2017-03-21T06:41:36.869Z,35
2017-03-21T06:42:38.307Z,35
2017-03-21T06:43:39.741Z,35
2017-03-21T06:44:41.170Z,35
2017-03-21T06:45:42.598Z,35
2017-03-21T06:46:44.043Z,35
2017-03-21T06:47:45.473Z,35
2017-03-21T06:48:46.909Z,35
2017-03-21T06:49:48.329Z,35
2017-03-21T06:50:49.755Z,35
2017-03-21T06:51:51.184Z,40
2017-03-21T06:52:52.612Z,40
2017-03-21T06:53:54.028Z,45
2017-03-21T06:54:55.463Z,45
2017-03-21T06:55:56.911Z,45
2017-03-21T06:56:58.334Z,50
2017-03-21T06:57:59.762Z,45
2017-03-21T06:59:01.190Z,45
2017-03-21T07:00:02.618Z,45
2017-03-21T07:01:04.048Z,45
2017-03-21T07:02:05.479Z,50
2017-03-21T07:03:06.906Z,50
2017-03-21T07:04:09.082Z,50
2017-03-21T07:05:10.514Z,50
2017-03-21T07:06:11.941Z,45
2017-03-21T07:07:13.375Z,45
2017-03-21T07:08:14.804Z,50
2017-03-21T07:09:16.232Z,50
2017-03-21T07:10:17.662Z,50
2017-03-21T07:11:19.091Z,55
2017-03-21T07:12:20.524Z,55
2017-03-21T07:13:21.955Z,60
2017-03-21T07:14:23.378Z,60
2017-03-21T07:15:24.819Z,60
2017-03-21T07:16:26.253Z,65
2017-03-21T07:17:27.682Z,65
2017-03-21T07:18:29.119Z,65
2017-03-21T07:19:30.555Z,65
2017-03-21T07:20:31.987Z,75
2017-03-21T07:21:33.422Z,60
2017-03-21T07:22:34.861Z,70
2017-03-21T07:23:36.285Z,70
2017-03-21T07:24:37.717Z,70
2017-03-21T07:25:39.142Z,70
2017-03-21T07:26:40.586Z,70
2017-03-21T07:27:42.027Z,70
2017-03-21T07:28:43.462Z,75
2017-03-21T07:29:44.884Z,75
2017-03-21T07:30:46.320Z,75
2017-03-21T07:31:47.757Z,35
2017-03-21T07:32:49.182Z,75
2017-03-21T07:33:50.619Z,80
2017-03-21T07:34:52.046Z,80
2017-03-21T07:35:53.481Z,80
2017-03-21T07:36:54.916Z,80
2017-03-21T07:37:56.350Z,80
2017-03-21T07:38:57.786Z,80
2017-03-21T07:39:59.214Z,80
2017-03-21T07:41:00.670Z,80
2017-03-21T07:42:02.071Z,80
2017-03-21T07:43:03.501Z,75
2017-03-21T07:44:04.931Z,75
2017-03-21T07:45:06.367Z,70
2017-03-21T07:46:07.794Z,70
2017-03-21T07:47:09.239Z,75
2017-03-21T07:48:10.673Z,75
2017-03-21T07:49:12.132Z,75
2017-03-21T07:50:13.528Z,80
2017-03-21T07:51:14.969Z,80
2017-03-21T07:52:16.398Z,85
2017-03-21T07:53:17.834Z,85
2017-03-21T07:54:19.263Z,85
2017-03-21T07:55:20.693Z,90
2017-03-21T07:56:22.127Z,80
2017-03-21T07:57:23.565Z,70
2017-03-21T07:58:24.993Z,45
2017-03-21T07:59:26.430Z,95
2017-03-21T08:00:27.872Z,95
2017-03-21T08:01:29.300Z,95
2017-03-21T08:02:30.737Z,95
2017-03-21T08:03:32.179Z,95
2017-03-21T08:04:33.600Z,90
2017-03-21T08:05:35.025Z,85
2017-03-21T08:06:36.456Z,85
2017-03-21T08:07:37.883Z,85
2017-03-21T08:08:39.311Z,85
2017-03-21T08:09:40.770Z,85
2017-03-21T08:10:42.197Z,80
2017-03-21T08:11:43.624Z,80
2017-03-21T08:12:45.062Z,80
2017-03-21T08:13:46.540Z,75
2017-03-21T08:14:47.986Z,75
2017-03-21T08:15:49.423Z,75
2017-03-21T08:16:50.851Z,75
2017-03-21T08:17:52.288Z,85
2017-03-21T08:18:53.714Z,90
2017-03-21T08:19:55.146Z,95
2017-03-21T08:20:56.596Z,95
2017-03-21T08:21:58.035Z,100
2017-03-21T08:22:59.465Z,100
2017-03-21T08:24:01.684Z,95
2017-03-21T08:25:03.120Z,85
2017-03-21T08:26:04.557Z,85
2017-03-21T08:27:05.978Z,85
2017-03-21T08:28:07.415Z,80
2017-03-21T08:29:08.849Z,85
2017-03-21T08:30:10.279Z,40
2017-03-21T08:31:11.721Z,50
2017-03-21T08:32:13.151Z,40
2017-03-21T08:33:14.580Z,20
2017-03-21T08:34:16.014Z,30
2017-03-21T08:35:17.448Z,50
2017-03-21T08:36:19.854Z,50
2017-03-21T08:37:21.280Z,55
2017-03-21T08:38:22.706Z,65
2017-03-21T08:39:24.149Z,80
2017-03-21T08:40:25.583Z,85
2017-03-21T08:41:27.012Z,90
2017-03-21T08:42:28.445Z,95
2017-03-21T08:43:29.873Z,90
2017-03-21T08:44:31.309Z,70
2017-03-21T08:45:32.733Z,75
2017-03-21T08:46:34.171Z,85
2017-03-21T08:47:35.599Z,90
2017-03-21T08:48:37.761Z,95
2017-03-21T08:49:39.192Z,95
2017-03-21T08:50:40.633Z,100
2017-03-21T08:51:42.064Z,110
2017-03-21T08:52:43.508Z,105
2017-03-21T08:53:44.939Z,100
2017-03-21T08:54:46.362Z,105
2017-03-21T08:55:47.801Z,105
2017-03-21T08:56:49.236Z,110
2017-03-21T08:57:50.675Z,120
2017-03-21T08:58:52.105Z,130
2017-03-21T08:59:53.528Z,130
2017-03-21T09:00:54.971Z,130
2017-03-21T09:01:56.398Z,115
2017-03-21T09:02:57.836Z,120
2017-03-21T09:03:59.268Z,105
2017-03-21T09:05:00.722Z,115
2017-03-21T09:06:02.154Z,125
2017-03-21T09:07:03.590Z,125
2017-03-21T09:08:05.023Z,120
2017-03-21T09:09:06.455Z,115
2017-03-21T09:10:07.888Z,110
2017-03-21T09:11:09.316Z,120
2017-03-21T09:12:10.751Z,115
2017-03-21T09:13:12.210Z,115
2017-03-21T09:14:13.647Z,115
2017-03-21T09:15:15.083Z,120
2017-03-21T09:16:16.515Z,105
2017-03-21T09:17:17.943Z,90
2017-03-21T09:18:19.371Z,80
2017-03-21T09:19:20.932Z,75
2017-03-21T09:20:22.355Z,75
2017-03-21T09:21:23.790Z,65
2017-03-21T09:22:25.233Z,55
2017-03-21T09:23:26.657Z,45
2017-03-21T09:24:28.096Z,35
2017-03-21T09:25:29.525Z,40
2017-03-21T09:26:30.961Z,40
2017-03-21T09:27:32.392Z,30
2017-03-21T09:28:33.823Z,25
2017-03-21T09:29:35.258Z,20
2017-03-21T09:30:36.709Z,20
2017-03-21T09:31:38.140Z,20
2017-03-21T09:32:39.599Z,20
2017-03-21T09:33:41.010Z,15
2017-03-21T09:34:42.487Z,20
2017-03-21T09:35:43.949Z,20
2017-03-21T09:36:45.386Z,20
2017-03-21T09:37:46.827Z,15
2017-03-21T09:38:48.257Z,15
2017-03-21T09:39:49.685Z,20
2017-03-21T09:40:51.117Z,15
2017-03-21T09:41:52.593Z,20
2017-03-21T09:42:54.078Z,20
2017-03-21T09:43:55.510Z,20
2017-03-21T09:44:56.943Z,25
2017-03-21T09:45:58.382Z,25
2017-03-21T09:46:59.805Z,35
2017-03-21T09:48:01.229Z,50
2017-03-21T09:49:02.661Z,55
2017-03-21T09:50:04.096Z,50
2017-03-21T09:51:05.523Z,50
2017-03-21T09:52:06.954Z,50
2017-03-21T09:53:08.377Z,55
2017-03-21T09:54:09.812Z,65
2017-03-21T09:55:11.237Z,80
2017-03-21T09:56:12.712Z,90
2017-03-21T09:57:14.145Z,100
2017-03-21T09:58:15.580Z,120
2017-03-21T09:59:17.017Z,140
2017-03-21T10:00:18.568Z,150
2017-03-21T10:01:20.022Z,155
2017-03-21T10:02:21.454Z,150
2017-03-21T10:03:22.886Z,150
2017-03-21T10:04:24.365Z,155
2017-03-21T10:05:25.796Z,160
2017-03-21T10:06:27.225Z,170
2017-03-21T10:07:28.663Z,175
2017-03-21T10:08:30.638Z,180
2017-03-21T10:09:32.064Z,180
2017-03-21T10:10:33.502Z,180
2017-03-21T10:11:34.930Z,185
2017-03-21T10:12:36.367Z,185
2017-03-21T10:13:37.790Z,185
2017-03-21T10:14:39.221Z,190
2017-03-21T10:15:40.644Z,205
2017-03-21T10:16:42.074Z,230
2017-03-21T10:17:43.510Z,250
2017-03-21T10:18:44.934Z,255
2017-03-21T10:19:46.366Z,230
2017-03-21T10:20:47.802Z,225
2017-03-21T10:21:49.241Z,230
2017-03-21T10:22:50.665Z,240
2017-03-21T10:23:52.103Z,240
2017-03-21T10:24:53.538Z,230
2017-03-21T10:25:54.975Z,205
2017-03-21T10:26:56.403Z,155
2017-03-21T10:27:57.835Z,165
2017-03-21T10:28:59.272Z,175
2017-03-21T10:30:00.715Z,165
2017-03-21T10:31:02.143Z,130
2017-03-21T10:32:03.580Z,100
2017-03-21T10:33:05.006Z,95
2017-03-21T10:34:06.434Z,85
2017-03-21T10:35:07.874Z,75
2017-03-21T10:36:09.299Z,70
2017-03-21T10:37:10.738Z,75
2017-03-21T10:38:12.160Z,60
2017-03-21T10:39:13.588Z,75
2017-03-21T10:40:15.040Z,95
2017-03-21T10:41:16.474Z,115
2017-03-21T10:42:17.907Z,120
2017-03-21T10:43:19.333Z,125
2017-03-21T10:44:20.771Z,120
2017-03-21T10:45:22.210Z,105
2017-03-21T10:46:23.638Z,75
2017-03-21T10:47:25.074Z,85
2017-03-21T10:48:26.501Z,85
2017-03-21T10:49:27.934Z,90
2017-03-21T10:50:29.379Z,85
2017-03-21T10:51:30.815Z,80
2017-03-21T10:52:32.251Z,60
2017-03-21T10:53:33.678Z,45
2017-03-21T10:54:35.108Z,40
2017-03-21T10:55:36.623Z,35
2017-03-21T10:56:38.057Z,40
2017-03-21T10:57:39.478Z,40
2017-03-21T10:58:40.923Z,60
2017-03-21T10:59:42.352Z,75
2017-03-21T11:00:43.783Z,75
2017-03-21T11:01:45.217Z,80
2017-03-21T11:02:46.647Z,85
2017-03-21T11:03:48.089Z,95
2017-03-21T11:04:49.521Z,105
2017-03-21T11:05:50.959Z,125
2017-03-21T11:06:52.458Z,135
2017-03-21T11:07:53.884Z,115
2017-03-21T11:08:55.318Z,95
2017-03-21T11:09:56.744Z,100
2017-03-21T11:10:58.205Z,90
2017-03-21T11:11:59.644Z,75
2017-03-21T11:13:01.070Z,65
2017-03-21T11:14:02.505Z,60
2017-03-21T11:15:03.951Z,50
2017-03-21T11:16:05.384Z,45
2017-03-21T11:17:06.811Z,40
2017-03-21T11:18:08.330Z,35
2017-03-21T11:19:09.758Z,40
2017-03-21T11:20:11.190Z,40
2017-03-21T11:21:12.661Z,40
2017-03-21T11:22:14.112Z,50
2017-03-21T11:23:15.545Z,60
2017-03-21T11:24:16.979Z,60
2017-03-21T11:25:18.409Z,50
2017-03-21T11:26:19.842Z,45
2017-03-21T11:27:21.279Z,45
2017-03-21T11:28:22.715Z,40
2017-03-21T11:29:24.156Z,55
2017-03-21T11:30:25.591Z,65
2017-03-21T11:31:27.025Z,70
2017-03-21T11:32:28.457Z,75
2017-03-21T11:33:29.898Z,80
2017-03-21T11:34:31.325Z,85
2017-03-21T11:35:32.755Z,75
2017-03-21T11:36:34.272Z,65
2017-03-21T11:37:35.700Z,80
2017-03-21T11:38:37.133Z,85
2017-03-21T11:39:38.553Z,80
2017-03-21T11:40:39.985Z,75
2017-03-21T11:41:41.411Z,75
2017-03-21T11:42:42.843Z,70
2017-03-21T11:43:44.272Z,75
2017-03-21T11:44:45.709Z,65
2017-03-21T11:45:47.145Z,70
2017-03-21T11:46:49.303Z,65
2017-03-21T11:47:50.736Z,50
2017-03-21T11:48:52.164Z,50
2017-03-21T11:49:53.596Z,50
2017-03-21T11:50:55.027Z,55
2017-03-21T11:51:56.471Z,60
2017-03-21T11:52:57.902Z,60
2017-03-21T11:53:59.337Z,60
2017-03-21T11:55:00.778Z,55
2017-03-21T11:56:02.209Z,65
2017-03-21T11:57:03.650Z,65
2017-03-21T11:58:05.077Z,70
2017-03-21T11:59:06.515Z,90
2017-03-21T12:00:07.937Z,95
2017-03-21T12:01:09.358Z,95
2017-03-21T12:02:10.796Z,105
2017-03-21T12:03:13.017Z,115
2017-03-21T12:04:14.455Z,130
2017-03-21T12:05:15.881Z,135
2017-03-21T12:06:17.305Z,125
2017-03-21T12:07:18.742Z,130
2017-03-21T12:08:20.174Z,130
2017-03-21T12:09:21.614Z,120
2017-03-21T12:10:23.050Z,125
2017-03-21T12:11:24.488Z,135
2017-03-21T12:12:25.918Z,165
2017-03-21T12:13:27.348Z,175
2017-03-21T12:14:28.780Z,175
2017-03-21T12:15:30.212Z,215
2017-03-21T12:16:31.648Z,220
2017-03-21T12:17:33.080Z,190
2017-03-21T12:18:34.513Z,160
2017-03-21T12:19:35.951Z,160
2017-03-21T12:20:37.401Z,200
2017-03-21T12:21:39.731Z,235
2017-03-21T12:22:41.165Z,220
2017-03-21T12:23:42.603Z,245
2017-03-21T12:24:44.142Z,290
2017-03-21T12:25:45.577Z,285
2017-03-21T12:26:47.021Z,255
2017-03-21T12:27:48.453Z,235
2017-03-21T12:28:49.883Z,220
2017-03-21T12:29:51.444Z,200
2017-03-21T12:30:52.892Z,175
2017-03-21T12:31:54.322Z,180
2017-03-21T12:32:55.760Z,130
2017-03-21T12:33:57.193Z,115
2017-03-21T12:34:59.576Z,90
2017-03-21T12:36:00.016Z,105
2017-03-21T12:37:01.442Z,120
2017-03-21T12:38:03.778Z,125
2017-03-21T12:39:05.212Z,120
2017-03-21T12:40:06.650Z,115
2017-03-21T12:41:08.093Z,110
2017-03-21T12:42:09.530Z,100
2017-03-21T12:43:10.980Z,100
2017-03-21T12:44:12.419Z,110
2017-03-21T12:45:13.862Z,120
2017-03-21T12:46:15.299Z,130
2017-03-21T12:47:16.741Z,125
2017-03-21T12:48:18.174Z,125
2017-03-21T12:49:19.608Z,125
2017-03-21T12:50:21.043Z,125
2017-03-21T12:51:22.474Z,125
2017-03-21T12:52:23.907Z,125
2017-03-21T12:53:26.142Z,140
2017-03-21T12:54:27.575Z,135
2017-03-21T12:55:29.017Z,140
2017-03-21T12:56:30.462Z,145
2017-03-21T12:57:31.901Z,155
2017-03-21T12:58:33.334Z,170
2017-03-21T12:59:34.776Z,165
2017-03-21T13:00:36.199Z,190
2017-03-21T13:01:37.626Z,200
2017-03-21T13:02:39.070Z,185
2017-03-21T13:03:40.495Z,175
2017-03-21T13:04:41.927Z,150
2017-03-21T13:05:43.369Z,120
2017-03-21T13:06:44.797Z,95
2017-03-21T13:07:46.228Z,85
2017-03-21T13:08:47.662Z,85
2017-03-21T13:09:49.089Z,85
2017-03-21T13:10:50.532Z,100
2017-03-21T13:11:51.967Z,115
2017-03-21T13:12:53.402Z,125
2017-03-21T13:13:54.860Z,115
2017-03-21T13:14:56.297Z,125
2017-03-21T13:15:57.721Z,120
2017-03-21T13:16:59.166Z,130
2017-03-21T13:18:00.605Z,165
2017-03-21T13:19:02.033Z,195
2017-03-21T13:20:03.468Z,210
2017-03-21T13:21:04.903Z,230
2017-03-21T13:22:06.343Z,310
2017-03-21T13:23:07.771Z,385
2017-03-21T13:24:09.207Z,1480
2017-03-21T13:25:10.641Z,895
2017-03-21T13:26:12.081Z,965
2017-03-21T13:27:13.523Z,405
2017-03-21T13:28:14.963Z,285
2017-03-21T13:29:16.405Z,190
2017-03-21T13:30:17.850Z,195
2017-03-21T13:31:19.277Z,210
2017-03-21T13:32:22.390Z,190
2017-03-21T13:33:23.823Z,185
2017-03-21T13:34:25.261Z,205
2017-03-21T13:35:26.694Z,220
2017-03-21T13:36:28.153Z,275
2017-03-21T13:37:29.596Z,210
2017-03-21T13:38:31.132Z,205
2017-03-21T13:39:32.561Z,275
2017-03-21T13:40:34.550Z,170
2017-03-21T13:41:35.981Z,120
2017-03-21T13:42:37.424Z,130
2017-03-21T13:43:39.601Z,210
2017-03-21T13:44:40.238Z,135
2017-03-21T13:45:41.670Z,125
2017-03-21T13:46:43.104Z,140
2017-03-21T13:47:44.532Z,205
2017-03-21T13:48:45.971Z,155
2017-03-21T13:49:47.409Z,125
2017-03-21T13:50:48.839Z,120
2017-03-21T13:51:50.271Z,110
2017-03-21T13:52:51.704Z,105
2017-03-21T13:53:53.142Z,120
2017-03-21T13:54:54.578Z,125
2017-03-21T13:55:56.012Z,125
2017-03-21T13:56:57.460Z,165
2017-03-21T13:57:58.896Z,155
2017-03-21T13:59:00.325Z,180
2017-03-21T14:00:01.763Z,190
2017-03-21T14:01:03.202Z,200
2017-03-21T14:02:04.636Z,235
2017-03-21T14:03:06.076Z,250
2017-03-21T14:04:07.508Z,240
2017-03-21T14:05:08.939Z,215
2017-03-21T14:06:10.366Z,205
2017-03-21T14:07:11.831Z,210
2017-03-21T14:08:13.272Z,210
2017-03-21T14:09:14.707Z,205
2017-03-21T14:10:16.143Z,200
2017-03-21T14:11:17.583Z,190
2017-03-21T14:12:19.032Z,185
2017-03-21T14:13:20.467Z,185
2017-03-21T14:14:22.809Z,180
2017-03-21T14:15:24.878Z,170
2017-03-21T14:16:26.331Z,170
2017-03-21T14:17:27.851Z,170
2017-03-21T14:18:29.287Z,170
2017-03-21T14:19:30.724Z,175
2017-03-21T14:20:32.155Z,175
2017-03-21T14:21:34.306Z,175
2017-03-21T14:22:35.748Z,175
2017-03-21T14:23:37.184Z,175
2017-03-21T14:24:38.626Z,170
2017-03-21T14:25:40.060Z,180
2017-03-21T14:26:41.502Z,185
2017-03-21T14:27:42.942Z,190
2017-03-21T14:28:44.371Z,195
2017-03-21T14:29:45.810Z,190
2017-03-21T14:30:47.248Z,185
2017-03-21T14:31:48.681Z,175
2017-03-21T14:32:50.130Z,175
2017-03-21T14:33:51.594Z,175
2017-03-21T14:34:52.994Z,175
2017-03-21T14:35:54.426Z,175
2017-03-21T14:36:56.778Z,175
2017-03-21T14:37:58.214Z,170
2017-03-21T14:38:59.646Z,170
2017-03-21T14:40:01.084Z,165
2017-03-21T14:41:02.517Z,160